Time;durP1;ratioP1;P1;durP2;ratioP2;P2;SDS_P1;SDS_P2;PMS_P1;PMS_P2;Temp;Humidity;BMP_temperature;BMP_pressure;BME280_temperature;BME280_humidity;BME280_pressure;Samples;Min_cycle;Max_cycle;Signal;HPM_P1;HPM_P2
2021/09/15 01:04:15;;;;;;;10.13;8.90;;;;;;;21.06;78.52;99556.59;1089149;46;20050;-75
2021/09/15 01:05:17;;;;;;;10.35;8.27;;;;;;;21.13;77.92;99556.53;1087901;54;20657;-75
2021/09/15 01:06:21;;;;;;;9.88;8.15;;;;;;;21.30;77.13;99554.88;1087833;54;20039;-78
2021/09/15 01:07:23;;;;;;;9.60;8.05;;;;;;;21.37;77.15;99546.63;1087732;54;20041;-76
2021/09/15 01:08:28;;;;;;;9.63;7.88;;;;;;;21.51;76.30;99541.84;1087807;54;20690;-75
2021/09/15 01:09:30;;;;;;;8.95;7.68;;;;;;;21.55;76.65;99540.31;1087751;54;20053;-75
2021/09/15 01:10:35;;;;;;;9.07;8.13;;;;;;;21.41;77.10;99536.13;1087651;54;20038;-78
2021/09/15 01:11:38;;;;;;;10.82;8.77;;;;;;;21.43;77.21;99539.47;1087837;54;20034;-76
2021/09/15 01:12:42;;;;;;;9.38;7.97;;;;;;;21.53;76.47;99547.91;1087740;54;20086;-75
2021/09/15 01:13:45;;;;;;;10.50;7.97;;;;;;;21.60;76.46;99536.94;1087755;54;20061;-77
2021/09/15 01:14:49;;;;;;;9.60;7.50;;;;;;;21.64;76.20;99535.44;1087667;54;20054;-75
2021/09/15 01:15:51;;;;;;;9.23;7.68;;;;;;;21.68;76.34;99543.97;1087560;54;20030;-77
2021/09/15 01:16:58;;;;;;;8.10;6.97;;;;;;;21.72;76.43;99542.47;1087599;54;20065;-77
2021/09/15 01:18:11;;;;;;;10.05;7.10;;;;;;;21.72;76.14;99539.75;1087730;54;20035;-78
2021/09/15 01:19:18;;;;;;;9.60;7.13;;;;;;;21.72;76.47;99542.47;1087841;54;20030;-78
2021/09/15 01:20:20;;;;;;;10.85;8.35;;;;;;;21.69;76.65;99535.56;1087762;54;20054;-77
2021/09/15 01:21:26;;;;;;;10.18;7.85;;;;;;;21.64;76.85;99536.25;1087691;54;20035;-77
2021/09/15 01:22:29;;;;;;;9.73;8.02;;;;;;;21.60;76.83;99535.06;1087811;54;20035;-78
2021/09/15 01:23:33;;;;;;;8.75;7.53;;;;;;;21.62;77.02;99530.25;1087712;54;20057;-78
2021/09/15 01:24:34;;;;;;;8.82;7.22;;;;;;;21.66;76.43;99542.31;1087654;54;20061;-79
2021/09/15 01:25:38;;;;;;;7.63;6.75;;;;;;;21.69;76.34;99549.16;1087734;54;20077;-77
2021/09/15 01:26:40;;;;;;;8.70;7.05;;;;;;;21.69;76.56;99543.72;1087718;54;20038;-78
2021/09/15 01:27:44;;;;;;;9.40;7.47;;;;;;;21.63;76.88;99545.47;1087926;39;20684;-78
2021/09/15 01:28:46;;;;;;;10.52;8.98;;;;;;;21.51;77.35;99550.84;1087672;54;20038;-78
2021/09/15 01:29:50;;;;;;;12.32;10.02;;;;;;;21.46;77.79;99534.38;1087736;54;20053;-75
2021/09/15 01:30:51;;;;;;;12.15;9.43;;;;;;;21.44;77.82;99541.13;1087756;54;20034;-75
2021/09/15 01:32:01;;;;;;;11.30;9.43;;;;;;;21.44;77.64;99543.84;1087719;54;20030;-76
2021/09/15 01:33:03;;;;;;;12.40;9.50;;;;;;;21.37;77.49;99540.34;1087798;54;20030;-75
2021/09/15 01:34:07;;;;;;;10.93;8.48;;;;;;;21.37;77.70;99540.34;1087724;54;20061;-76
2021/09/15 01:35:09;;;;;;;9.20;7.80;;;;;;;21.35;77.58;99544.13;1087748;54;20034;-75
2021/09/15 01:36:13;;;;;;;10.32;7.95;;;;;;;21.42;77.35;99540.50;1087789;54;20034;-77
2021/09/15 01:37:17;;;;;;;11.02;9.40;;;;;;;21.36;77.66;99534.09;1087682;54;20049;-77
2021/09/15 01:38:21;;;;;;;10.60;8.32;;;;;;;21.37;77.77;99538.47;1087639;54;20033;-75
2021/09/15 01:39:23;;;;;;;9.43;8.43;;;;;;;21.38;78.11;99531.13;1087613;54;20041;-76
2021/09/15 01:40:27;;;;;;;11.32;8.38;;;;;;;21.36;77.71;99539.53;1087804;54;20784;-76
2021/09/15 01:41:29;;;;;;;10.73;8.27;;;;;;;21.38;77.73;99536.56;1091919;31;20765;-77
2021/09/15 01:42:34;;;;;;;10.68;8.02;;;;;;;21.35;77.84;99527.00;1087761;54;20115;-76
2021/09/15 01:43:35;;;;;;;9.45;7.70;;;;;;;21.36;77.48;99534.09;1087699;54;20034;-76
2021/09/15 01:44:43;;;;;;;8.70;7.50;;;;;;;21.41;77.61;99536.13;1087511;54;20031;-76
2021/09/15 01:45:44;;;;;;;9.70;7.10;;;;;;;21.43;77.41;99534.84;1087756;54;20034;-75
2021/09/15 01:46:48;;;;;;;7.72;6.93;;;;;;;21.40;77.01;99539.91;1087677;54;20030;-75
2021/09/15 01:47:50;;;;;;;10.40;6.93;;;;;;;21.44;77.51;99538.41;1087641;54;20038;-75
2021/09/15 01:48:54;;;;;;;7.60;6.60;;;;;;;21.46;76.96;99536.25;1087761;54;20034;-75
2021/09/15 01:49:55;;;;;;;9.95;6.90;;;;;;;21.45;77.17;99530.00;1087535;54;20030;-77
2021/09/15 01:51:00;;;;;;;9.00;8.10;;;;;;;21.39;77.14;99520.06;1087658;54;20041;-77
2021/09/15 01:52:03;;;;;;;10.63;9.20;;;;;;;21.31;77.23;99515.75;1087722;54;20035;-76
2021/09/15 01:53:09;;;;;;;9.43;8.18;;;;;;;21.30;77.25;99518.72;1087776;54;20046;-75
2021/09/15 01:54:11;;;;;;;10.27;8.38;;;;;;;21.33;77.50;99512.81;1087609;54;20049;-75
2021/09/15 01:55:22;;;;;;;8.98;7.70;;;;;;;21.33;77.12;99513.66;1087721;54;20018;-76
2021/09/15 01:56:23;;;;;;;10.70;7.95;;;;;;;21.33;77.28;99516.38;1087604;54;20034;-75
2021/09/15 01:57:28;;;;;;;8.30;7.38;;;;;;;21.39;76.95;99516.50;1087676;54;20057;-77
2021/09/15 01:58:29;;;;;;;8.45;7.40;;;;;;;21.40;76.74;99516.25;1087628;54;20041;-76
2021/09/15 01:59:33;;;;;;;9.90;6.95;;;;;;;21.42;76.58;99516.03;1091119;39;20939;-76
2021/09/15 02:00:38;;;;;;;8.82;6.85;;;;;;;21.39;76.66;99511.91;1087711;54;20035;-74
2021/09/15 02:01:41;;;;;;;8.98;7.45;;;;;;;21.34;76.50;99515.31;1087378;54;20058;-77
2021/09/15 02:02:46;;;;;;;10.32;8.10;;;;;;;21.35;76.22;99511.50;1093697;39;20594;-77
2021/09/15 02:03:48;;;;;;;9.30;8.02;;;;;;;21.31;76.75;99518.47;1087708;54;20042;-76
2021/09/15 02:04:52;;;;;;;10.05;8.00;;;;;;;21.34;76.22;99526.19;1087184;54;20034;-75
2021/09/15 02:05:55;;;;;;;10.07;8.35;;;;;;;21.40;76.45;99515.44;1087579;54;20041;-75
2021/09/15 02:06:59;;;;;;;9.48;7.80;;;;;;;21.43;76.12;99523.16;1087512;54;20059;-76
2021/09/15 02:08:01;;;;;;;8.98;7.43;;;;;;;21.43;76.12;99513.09;1087564;54;20030;-76
2021/09/15 02:09:09;;;;;;;10.80;7.82;;;;;;;21.39;76.10;99511.91;1087632;54;20756;-75
2021/09/15 02:10:12;;;;;;;10.00;7.78;;;;;;;21.42;76.03;99510.59;1087589;54;20055;-78
2021/09/15 02:11:16;;;;;;;9.00;7.75;;;;;;;21.44;76.04;99508.50;1087811;54;20018;-77
2021/09/15 02:12:18;;;;;;;9.38;8.35;;;;;;;21.35;76.37;99511.50;1087674;54;20339;-75
2021/09/15 02:13:23;;;;;;;10.30;8.73;;;;;;;21.34;76.38;99507.16;1087474;54;20041;-77
2021/09/15 02:14:25;;;;;;;10.52;8.32;;;;;;;21.35;76.24;99499.81;1088508;39;20660;-78
2021/09/15 02:15:30;;;;;;;9.18;7.70;;;;;;;21.37;76.45;99503.13;1088740;46;21093;-77
2021/09/15 02:16:32;;;;;;;9.38;8.32;;;;;;;21.40;76.54;99501.84;1087779;54;20045;-77
2021/09/15 02:17:37;;;;;;;9.65;7.53;;;;;;;21.39;76.44;99508.34;1087690;54;20014;-76
2021/09/15 02:18:39;;;;;;;9.88;7.28;;;;;;;21.39;76.51;99502.91;1087558;54;20042;-76
2021/09/15 02:19:44;;;;;;;8.05;6.68;;;;;;;21.40;76.21;99502.66;1087642;54;20035;-76
2021/09/15 02:20:46;;;;;;;8.32;7.13;;;;;;;21.38;76.46;99502.09;1087427;54;20030;-77
2021/09/15 02:21:50;;;;;;;9.00;7.30;;;;;;;21.43;76.42;99504.13;1087711;54;20094;-77
2021/09/15 02:22:52;;;;;;;8.75;7.35;;;;;;;21.42;76.54;99499.72;1087712;54;20038;-76
2021/09/15 02:23:57;;;;;;;8.65;7.47;;;;;;;21.43;76.18;99501.41;1087636;47;20038;-77
2021/09/15 02:25:04;;;;;;;8.02;7.03;;;;;;;21.43;76.38;99506.84;1087423;54;20078;-78
2021/09/15 02:26:06;;;;;;;9.18;7.30;;;;;;;21.41;76.68;99503.50;1087689;54;20034;-76
2021/09/15 02:27:11;;;;;;;9.77;7.03;;;;;;;21.39;76.42;99505.63;1087610;54;20037;-77
2021/09/15 02:28:13;;;;;;;9.02;7.32;;;;;;;21.40;76.25;99507.28;1087616;54;20022;-78
2021/09/15 02:29:18;;;;;;;8.05;7.18;;;;;;;21.42;76.18;99500.56;1087536;54;20079;-76
2021/09/15 02:30:20;;;;;;;7.82;6.63;;;;;;;21.43;76.63;99506.84;1087542;54;20038;-77
2021/09/15 02:31:24;;;;;;;9.93;7.50;;;;;;;21.43;76.35;99509.56;1087629;54;20054;-77
2021/09/15 02:32:26;;;;;;;9.68;7.25;;;;;;;21.40;76.71;99510.81;1087648;54;20094;-77
2021/09/15 02:33:31;;;;;;;9.90;7.82;;;;;;;21.39;76.64;99516.50;1087586;54;20082;-78
2021/09/15 02:34:32;;;;;;;11.02;8.38;;;;;;;21.34;76.66;99519.91;1087733;54;20014;-77
2021/09/15 02:35:37;;;;;;;10.20;8.02;;;;;;;21.41;76.69;99520.63;1087535;54;20026;-77
2021/09/15 02:36:39;;;;;;;9.10;7.55;;;;;;;21.40;76.62;99518.16;1087446;54;20034;-78
2021/09/15 02:37:43;;;;;;;8.88;7.80;;;;;;;21.40;76.87;99515.44;1087658;54;20037;-77
2021/09/15 02:38:46;;;;;;;9.02;7.72;;;;;;;21.42;76.83;99516.88;1087729;46;20086;-76
2021/09/15 02:39:50;;;;;;;8.77;7.40;;;;;;;21.47;76.52;99513.44;1087620;54;20725;-77
2021/09/15 02:40:56;;;;;;;11.48;8.32;;;;;;;21.46;76.62;99506.34;1088601;39;20328;-78
2021/09/15 02:42:00;;;;;;;14.55;9.35;;;;;;;21.45;76.60;99512.84;1090885;39;20916;-78
2021/09/15 02:43:02;;;;;;;12.55;8.35;;;;;;;21.45;76.76;99504.69;1087629;54;20061;-76
2021/09/15 02:44:07;;;;;;;11.82;8.20;;;;;;;21.46;76.56;99506.34;1092009;39;20697;-77
2021/09/15 02:45:10;;;;;;;10.32;7.97;;;;;;;21.45;76.53;99504.69;1087891;39;20437;-78
2021/09/15 02:46:14;;;;;;;8.85;7.30;;;;;;;21.45;76.62;99494.66;1087535;54;20042;-76
2021/09/15 02:47:16;;;;;;;9.05;7.15;;;;;;;21.44;76.59;99497.63;1087584;54;20069;-76
2021/09/15 02:48:21;;;;;;;8.73;7.50;;;;;;;21.42;76.50;99502.44;1087524;54;20053;-76
2021/09/15 02:49:27;;;;;;;10.50;7.97;;;;;;;21.42;76.82;99502.44;1087550;54;20682;-77
2021/09/15 02:50:31;;;;;;;10.55;8.00;;;;;;;21.35;76.95;99495.19;1087597;54;20034;-75
2021/09/15 02:51:33;;;;;;;13.27;8.73;;;;;;;21.34;76.74;99498.16;1087640;54;20039;-76
2021/09/15 02:52:38;;;;;;;13.30;9.55;;;;;;;21.31;76.77;99499.44;1087606;54;20086;-76
2021/09/15 02:53:40;;;;;;;12.77;9.15;;;;;;;21.25;77.19;99494.94;1087382;54;21134;-77
2021/09/15 02:54:44;;;;;;;11.27;8.70;;;;;;;21.24;77.06;99492.44;1088860;39;20103;-76
2021/09/15 02:55:46;;;;;;;10.63;8.85;;;;;;;21.23;77.03;99494.31;1087642;54;20725;-75
2021/09/15 02:56:54;;;;;;;10.65;8.27;;;;;;;21.22;77.40;99489.94;1087606;54;20049;-78
2021/09/15 02:57:56;;;;;;;11.02;8.05;;;;;;;21.22;77.21;99489.09;1087634;54;20031;-76
2021/09/15 02:59:00;;;;;;;11.32;8.15;;;;;;;21.21;77.45;99484.75;1087464;54;20749;-77
2021/09/15 03:00:03;;;;;;;11.10;8.13;;;;;;;21.22;77.27;99489.94;1087527;54;20037;-76
2021/09/15 03:01:09;;;;;;;10.57;8.30;;;;;;;21.19;77.47;99485.81;1087495;54;20709;-75
2021/09/15 03:02:10;;;;;;;10.35;7.60;;;;;;;21.24;77.49;99487.00;1087543;54;20034;-77
2021/09/15 03:03:15;;;;;;;9.27;7.28;;;;;;;21.25;77.10;99486.78;1087644;54;20031;-76
2021/09/15 03:04:17;;;;;;;9.90;7.63;;;;;;;21.29;77.34;99498.03;1087602;54;20038;-76
2021/09/15 03:05:21;;;;;;;9.25;8.30;;;;;;;21.25;77.53;99496.81;1086990;54;20162;-77
2021/09/15 03:06:23;;;;;;;11.10;8.32;;;;;;;21.28;77.64;99505.34;1087558;54;20035;-77
2021/09/15 03:07:28;;;;;;;12.32;9.18;;;;;;;21.23;77.27;99496.19;1087539;54;20057;-76
2021/09/15 03:08:32;;;;;;;10.80;8.38;;;;;;;21.22;77.60;99499.97;1087711;54;20054;-77
2021/09/15 03:09:36;;;;;;;10.93;7.97;;;;;;;21.19;77.85;99496.69;1087585;54;20074;-75
2021/09/15 03:10:38;;;;;;;12.55;9.35;;;;;;;21.16;77.75;99501.75;1087452;54;20039;-76
2021/09/15 03:11:42;;;;;;;13.77;9.20;;;;;;;21.17;77.90;99497.94;1087584;54;20037;-77
2021/09/15 03:12:47;;;;;;;10.15;8.57;;;;;;;21.23;77.62;99498.91;1087660;54;20055;-77
2021/09/15 03:13:52;;;;;;;9.55;8.35;;;;;;;21.24;77.77;99498.72;1087569;54;20035;-76
2021/09/15 03:14:54;;;;;;;10.60;7.43;;;;;;;21.22;77.56;99500.81;1087390;54;20031;-76
2021/09/15 03:15:59;;;;;;;8.45;7.00;;;;;;;21.25;77.39;99494.09;1090588;39;20696;-76
2021/09/15 03:17:00;;;;;;;9.10;7.28;;;;;;;21.22;77.53;99495.38;1087435;54;20050;-76
2021/09/15 03:18:04;;;;;;;8.23;7.13;;;;;;;21.24;77.61;99498.72;1087654;54;20042;-76
2021/09/15 03:19:07;;;;;;;9.07;7.35;;;;;;;21.23;77.79;99497.03;1087482;54;20090;-76
2021/09/15 03:20:12;;;;;;;8.73;7.05;;;;;;;21.27;77.12;99492.78;1087458;54;20030;-75
2021/09/15 03:21:14;;;;;;;9.10;6.40;;;;;;;21.29;77.28;99490.69;1087588;54;20035;-76
2021/09/15 03:22:21;;;;;;;9.43;7.13;;;;;;;21.29;77.09;99496.13;1087345;54;20761;-76
2021/09/15 03:23:22;;;;;;;8.07;6.68;;;;;;;21.30;77.12;99492.34;1087496;54;20034;-76
2021/09/15 03:24:27;;;;;;;8.77;7.00;;;;;;;21.30;76.88;99495.06;1087484;54;20037;-76
2021/09/15 03:25:29;;;;;;;7.80;6.63;;;;;;;21.30;77.36;99492.34;1087436;54;20035;-77
2021/09/15 03:26:33;;;;;;;7.75;6.65;;;;;;;21.28;77.25;99494.47;1087541;54;20161;-77
2021/09/15 03:27:36;;;;;;;8.43;6.50;;;;;;;21.27;77.05;99492.78;1087334;46;20046;-76
2021/09/15 03:28:43;;;;;;;7.60;6.55;;;;;;;21.24;77.00;99496.00;1091515;39;20758;-77
2021/09/15 03:29:45;;;;;;;8.48;7.57;;;;;;;21.23;77.48;99479.88;1087476;54;20030;-77
2021/09/15 03:30:50;;;;;;;9.02;7.53;;;;;;;21.19;77.41;99491.25;1087503;54;20111;-76
2021/09/15 03:31:51;;;;;;;9.02;7.63;;;;;;;21.18;77.49;99483.28;1087646;54;20042;-76
2021/09/15 03:32:56;;;;;;;9.23;7.22;;;;;;;21.18;77.36;99483.28;1087567;54;20034;-77
2021/09/15 03:34:00;;;;;;;8.13;7.22;;;;;;;21.17;77.23;99478.91;1087957;54;20098;-76
2021/09/15 03:35:05;;;;;;;11.00;7.20;;;;;;;21.12;77.46;99471.44;1087898;54;20027;-76
2021/09/15 03:36:10;;;;;;;8.77;7.88;;;;;;;21.13;77.84;99469.56;1088033;47;20033;-80
2021/09/15 03:37:12;;;;;;;9.57;8.05;;;;;;;21.11;77.38;99474.41;1087802;54;20038;-77
2021/09/15 03:38:16;;;;;;;9.80;7.78;;;;;;;21.09;77.75;99473.78;1087595;54;20031;-77
2021/09/15 03:39:20;;;;;;;10.88;8.05;;;;;;;21.08;77.43;99467.53;1087889;54;20073;-77
2021/09/15 03:40:24;;;;;;;9.10;7.90;;;;;;;21.10;77.46;99473.59;1087873;54;20038;-77
2021/09/15 03:41:26;;;;;;;8.65;6.97;;;;;;;21.16;77.12;99477.28;1087982;54;20058;-76
2021/09/15 03:42:30;;;;;;;10.48;7.80;;;;;;;21.16;77.35;99474.56;1087870;54;20026;-76
2021/09/15 03:43:32;;;;;;;11.73;7.90;;;;;;;21.16;77.45;99471.84;1087825;54;20034;-76
2021/09/15 03:44:39;;;;;;;9.65;7.53;;;;;;;21.15;77.52;99478.34;1089724;46;20094;-77
2021/09/15 03:45:41;;;;;;;9.15;7.28;;;;;;;21.18;77.08;99472.44;1087801;54;20035;-78
2021/09/15 03:46:45;;;;;;;10.52;7.78;;;;;;;21.12;77.73;99481.50;1087798;54;20015;-77
2021/09/15 03:47:47;;;;;;;9.93;7.35;;;;;;;21.16;77.37;99471.84;1087885;54;20034;-77
2021/09/15 03:48:53;;;;;;;11.13;8.68;;;;;;;21.12;77.29;99473.34;1089405;39;21022;-77
2021/09/15 03:49:55;;;;;;;11.20;9.13;;;;;;;21.04;77.47;99475.31;1087877;54;20019;-77
2021/09/15 03:51:00;;;;;;;11.68;9.02;;;;;;;21.08;77.51;99477.56;1087686;54;20019;-77
2021/09/15 03:52:01;;;;;;;11.13;7.93;;;;;;;21.07;77.66;99474.03;1087625;54;20058;-78
2021/09/15 03:53:05;;;;;;;10.88;7.90;;;;;;;21.10;77.48;99475.47;1087450;54;20816;-77
2021/09/15 03:54:07;;;;;;;10.10;8.55;;;;;;;21.08;77.24;99467.53;1087763;54;20034;-76
2021/09/15 03:55:12;;;;;;;10.02;8.00;;;;;;;21.03;77.22;99476.38;1087486;54;20035;-77
2021/09/15 03:56:14;;;;;;;9.90;8.32;;;;;;;21.03;77.51;99480.97;1087448;54;20030;-76
2021/09/15 03:57:18;;;;;;;10.07;8.82;;;;;;;21.08;77.29;99477.56;1089061;39;20678;-78
2021/09/15 03:58:20;;;;;;;9.45;7.78;;;;;;;21.09;77.35;99476.50;1087585;54;20037;-77
2021/09/15 03:59:24;;;;;;;8.82;7.82;;;;;;;21.10;77.29;99470.03;1087762;54;20067;-78
2021/09/15 04:00:28;;;;;;;9.05;7.22;;;;;;;21.04;77.00;99472.59;1087908;54;20039;-76
2021/09/15 04:01:33;;;;;;;9.60;7.78;;;;;;;21.06;77.00;99474.28;1087767;54;20065;-76
2021/09/15 04:02:35;;;;;;;10.90;7.93;;;;;;;21.01;77.00;99477.69;1087897;54;20061;-77
2021/09/15 04:03:39;;;;;;;11.00;8.02;;;;;;;21.00;77.25;99471.41;1087924;54;20037;-76
2021/09/15 04:04:40;;;;;;;10.90;8.50;;;;;;;20.94;77.66;99471.47;1087855;54;20030;-77
2021/09/15 04:05:45;;;;;;;9.60;7.93;;;;;;;20.91;77.42;99474.66;1087624;54;20034;-77
2021/09/15 04:06:47;;;;;;;13.65;8.93;;;;;;;20.87;77.41;99471.56;1087615;54;20749;-76
2021/09/15 04:07:51;;;;;;;10.75;8.88;;;;;;;20.83;77.71;99473.06;1087862;54;20035;-77
2021/09/15 04:08:52;;;;;;;10.63;8.35;;;;;;;20.84;77.82;99466.56;1087756;54;20038;-76
2021/09/15 04:09:56;;;;;;;10.05;8.68;;;;;;;20.85;77.92;99476.38;1087875;54;20090;-76
2021/09/15 04:10:58;;;;;;;11.07;7.97;;;;;;;20.86;77.83;99480.78;1091883;39;20649;-78
2021/09/15 04:12:02;;;;;;;9.85;7.93;;;;;;;20.90;77.64;99473.81;1088390;39;20263;-77
2021/09/15 04:13:04;;;;;;;10.02;7.45;;;;;;;20.91;77.88;99488.25;1087912;54;20018;-76
2021/09/15 04:14:08;;;;;;;13.00;8.18;;;;;;;20.81;78.22;99484.16;1087860;54;20018;-77
2021/09/15 04:15:10;;;;;;;11.30;9.43;;;;;;;20.64;78.90;99486.59;1088745;39;20733;-77
2021/09/15 04:16:17;;;;;;;11.80;9.75;;;;;;;20.75;78.70;99489.66;1089725;39;20681;-77
2021/09/15 04:17:19;;;;;;;9.63;7.95;;;;;;;20.86;77.91;99483.47;1087735;54;20027;-77
2021/09/15 04:18:23;;;;;;;10.98;7.88;;;;;;;20.92;77.76;99488.00;1089322;39;20697;-77
2021/09/15 04:19:24;;;;;;;11.88;8.32;;;;;;;20.98;77.98;99487.09;1087699;54;20034;-77
2021/09/15 04:20:29;;;;;;;10.55;7.82;;;;;;;21.00;77.79;99479.53;1087762;54;20881;-76
2021/09/15 04:21:30;;;;;;;13.13;8.63;;;;;;;21.02;77.71;99490.16;1089074;39;20682;-78
2021/09/15 04:22:37;;;;;;;9.98;7.95;;;;;;;21.08;77.69;99483.84;1089672;46;20031;-77
2021/09/15 04:23:47;;;;;;;11.68;8.50;;;;;;;21.10;77.26;99486.34;1093148;39;20200;-76
2021/09/15 04:31:25;;;;;;;13.48;9.25;;;;;;;21.02;78.36;99473.88;1087727;54;20034;-77
2021/09/15 04:32:27;;;;;;;10.38;8.25;;;;;;;21.01;78.41;99483.09;1087767;54;20038;-76
2021/09/15 04:33:31;;;;;;;12.68;9.23;;;;;;;21.06;78.19;99479.72;1087716;54;20042;-77
2021/09/15 04:34:32;;;;;;;11.95;9.68;;;;;;;21.02;78.54;99477.44;1087702;54;20049;-78
2021/09/15 04:35:37;;;;;;;10.95;9.55;;;;;;;21.03;78.16;99480.97;1087719;54;20027;-78
2021/09/15 04:36:41;;;;;;;11.88;9.65;;;;;;;21.02;78.27;99485.59;1087743;54;20023;-76
2021/09/15 04:37:42;;;;;;;9.68;8.15;;;;;;;21.06;78.37;99485.13;1087869;54;20031;-77
2021/09/15 04:38:46;;;;;;;9.75;7.93;;;;;;;21.08;78.22;99483.00;1087725;54;20034;-76
2021/09/15 04:39:48;;;;;;;10.23;8.18;;;;;;;21.07;78.48;99492.22;1087734;54;20057;-76
2021/09/15 04:40:53;;;;;;;11.65;8.52;;;;;;;21.08;78.59;99485.72;1087769;54;20042;-77
2021/09/15 04:41:54;;;;;;;9.70;8.68;;;;;;;21.07;78.53;99486.78;1087900;54;20098;-76
2021/09/15 04:42:59;;;;;;;9.90;8.50;;;;;;;21.07;78.95;99490.34;1087538;54;20038;-76
2021/09/15 04:44:00;;;;;;;10.10;7.78;;;;;;;21.10;78.82;99491.75;1087745;54;20018;-77
2021/09/15 04:45:04;;;;;;;9.48;7.53;;;;;;;21.10;78.75;99491.75;1087622;54;20030;-77
2021/09/15 04:46:09;;;;;;;12.55;8.43;;;;;;;21.04;78.77;99498.94;1087733;54;20041;-77
2021/09/15 04:47:13;;;;;;;10.68;8.52;;;;;;;20.91;79.37;99499.91;1087736;54;20756;-77
2021/09/15 04:48:17;;;;;;;10.50;8.85;;;;;;;20.98;79.41;99506.09;1088500;46;20769;-76
2021/09/15 04:49:18;;;;;;;10.90;8.55;;;;;;;20.92;79.44;99507.00;1087805;54;20693;-77
2021/09/15 04:50:23;;;;;;;10.65;7.85;;;;;;;20.99;79.38;99513.19;1087297;54;20033;-76
2021/09/15 04:51:24;;;;;;;11.55;9.52;;;;;;;21.01;79.27;99508.38;1087818;54;20026;-76
2021/09/15 04:52:28;;;;;;;10.20;8.80;;;;;;;20.98;79.76;99511.53;1087787;54;20058;-75
2021/09/15 04:53:30;;;;;;;11.32;9.00;;;;;;;20.92;79.64;99511.63;1087664;54;20054;-77
2021/09/15 04:54:34;;;;;;;11.20;9.50;;;;;;;20.97;79.71;99504.44;1087729;54;20127;-77
2021/09/15 04:55:36;;;;;;;9.90;8.55;;;;;;;20.91;79.92;99499.91;1087828;54;20038;-77
2021/09/15 04:56:40;;;;;;;9.38;8.30;;;;;;;20.90;79.73;99492.81;1087676;54;20034;-77
2021/09/15 04:57:42;;;;;;;10.05;7.93;;;;;;;21.00;79.12;99495.03;1087779;54;20041;-76
2021/09/15 04:58:46;;;;;;;11.50;8.02;;;;;;;21.03;79.17;99480.97;1087790;54;20034;-76
2021/09/15 04:59:48;;;;;;;9.13;7.93;;;;;;;21.03;79.04;99486.41;1087593;54;20034;-76
2021/09/15 05:00:52;;;;;;;9.32;8.20;;;;;;;21.07;78.94;99486.78;1087826;54;20041;-76
2021/09/15 05:02:02;;;;;;;9.35;8.32;;;;;;;21.03;78.86;99498.13;1087862;54;20365;-77
2021/09/15 05:03:08;;;;;;;8.52;7.20;;;;;;;21.03;78.30;99498.13;1087775;54;20034;-77
2021/09/15 05:04:10;;;;;;;9.52;7.93;;;;;;;21.07;78.71;99505.78;1087819;54;20761;-77
2021/09/15 05:05:14;;;;;;;8.95;7.15;;;;;;;21.10;78.63;99492.63;1087659;54;20031;-77
2021/09/15 05:06:16;;;;;;;9.00;7.30;;;;;;;21.12;78.53;99498.63;1088195;46;20073;-77
2021/09/15 05:07:20;;;;;;;8.52;7.15;;;;;;;21.12;78.44;99506.78;1087671;54;20030;-77
2021/09/15 05:08:24;;;;;;;8.50;7.05;;;;;;;21.14;78.43;99498.41;1087771;54;20787;-78
2021/09/15 05:09:25;;;;;;;9.10;7.45;;;;;;;21.10;78.53;99505.34;1087726;54;20038;-76
2021/09/15 05:10:29;;;;;;;8.43;7.22;;;;;;;21.11;78.48;99512.44;1087827;47;20035;-77
2021/09/15 05:11:31;;;;;;;10.30;7.70;;;;;;;20.92;79.41;99515.16;1087724;54;20034;-76
2021/09/15 05:12:35;;;;;;;10.82;8.45;;;;;;;20.88;79.33;99517.50;1087811;54;20041;-77
2021/09/15 05:13:37;;;;;;;10.75;8.80;;;;;;;20.84;79.57;99519.00;1087612;54;20698;-76
2021/09/15 05:14:41;;;;;;;11.43;9.52;;;;;;;20.86;79.50;99524.22;1088335;46;20035;-77
2021/09/15 05:15:42;;;;;;;11.48;10.13;;;;;;;20.78;79.54;99529.97;1087790;54;20106;-77
2021/09/15 05:16:47;;;;;;;13.90;12.50;;;;;;;20.74;80.13;99534.97;1087609;54;20820;-76
2021/09/15 05:17:49;;;;;;;13.57;11.80;;;;;;;20.77;79.75;99533.72;1087741;54;20041;-77
2021/09/15 05:18:55;;;;;;;14.23;11.65;;;;;;;20.80;79.50;99531.38;1087711;54;20123;-75
2021/09/15 05:19:57;;;;;;;13.85;12.27;;;;;;;20.79;79.31;99529.72;1087417;54;20038;-76
2021/09/15 05:21:01;;;;;;;17.38;15.20;;;;;;;20.57;80.15;99548.28;1087624;54;20026;-77
2021/09/15 05:22:03;;;;;;;17.35;13.90;;;;;;;20.40;81.04;99556.97;1087689;54;20046;-75
2021/09/15 05:23:07;;;;;;;13.52;11.48;;;;;;;20.50;80.82;99542.09;1087771;54;20035;-76
2021/09/15 05:24:09;;;;;;;10.82;9.73;;;;;;;20.48;80.63;99541.47;1087901;46;20039;-76
2021/09/15 05:25:13;;;;;;;10.13;8.88;;;;;;;20.68;79.93;99533.13;1087541;54;20742;-76
2021/09/15 05:26:14;;;;;;;9.95;8.35;;;;;;;20.76;79.54;99524.72;1088097;46;20038;-76
2021/09/15 05:27:18;;;;;;;11.48;8.10;;;;;;;20.78;79.45;99521.81;1087578;54;20037;-75
2021/09/15 05:28:20;;;;;;;12.05;8.57;;;;;;;20.72;79.59;99524.31;1087634;54;20034;-77
2021/09/15 05:29:24;;;;;;;9.23;7.97;;;;;;;20.82;79.68;99525.72;1087707;54;20030;-76
2021/09/15 05:30:26;;;;;;;9.88;7.55;;;;;;;20.75;79.68;99524.97;1087509;54;20054;-76
2021/09/15 05:31:30;;;;;;;9.35;7.65;;;;;;;20.77;79.72;99520.16;1087779;46;20997;-77
2021/09/15 05:32:32;;;;;;;8.82;7.00;;;;;;;20.82;79.78;99523.00;1087573;54;21037;-77
2021/09/15 05:33:36;;;;;;;9.57;7.93;;;;;;;20.73;79.92;99525.16;1087497;54;20074;-77
2021/09/15 05:34:40;;;;;;;10.38;7.93;;;;;;;20.53;80.12;99526.19;1088093;46;20034;-77
2021/09/15 05:35:44;;;;;;;11.43;8.10;;;;;;;20.50;80.67;99532.06;1087614;54;20046;-77
2021/09/15 05:36:45;;;;;;;10.30;7.90;;;;;;;20.59;80.40;99527.19;1087473;46;20057;-77
2021/09/15 05:37:50;;;;;;;8.95;7.60;;;;;;;20.60;80.27;99523.38;1087726;54;20022;-77
2021/09/15 05:38:51;;;;;;;8.52;7.47;;;;;;;20.56;80.68;99524.91;1087558;54;20031;-77
2021/09/15 05:39:55;;;;;;;10.70;7.78;;;;;;;20.49;80.74;99518.72;1087717;54;20042;-76
2021/09/15 05:40:57;;;;;;;9.90;7.68;;;;;;;20.39;81.48;99535.50;1087824;54;20030;-77
2021/09/15 05:42:01;;;;;;;10.65;8.27;;;;;;;20.40;81.55;99532.53;1087851;54;20111;-78
2021/09/15 05:43:03;;;;;;;9.65;8.65;;;;;;;20.30;81.93;99542.25;1089670;39;20710;-77
2021/09/15 05:44:08;;;;;;;10.07;8.48;;;;;;;20.41;81.36;99534.22;1087817;54;20030;-78
2021/09/15 05:45:10;;;;;;;9.93;8.18;;;;;;;20.46;81.14;99547.13;1088002;46;20286;-77
2021/09/15 05:46:14;;;;;;;11.43;8.00;;;;;;;20.52;80.99;99548.09;1088271;46;20049;-78
2021/09/15 05:47:16;;;;;;;9.95;8.95;;;;;;;20.52;80.95;99546.25;1087723;54;20035;-76
2021/09/15 05:48:20;;;;;;;9.90;8.90;;;;;;;20.56;81.08;99542.00;1088353;47;20093;-78
2021/09/15 05:49:21;;;;;;;12.88;10.13;;;;;;;20.58;80.70;99545.34;1087817;54;20041;-75
2021/09/15 05:50:28;;;;;;;10.35;9.02;;;;;;;20.57;80.99;99549.09;1087651;54;20035;-77
2021/09/15 05:51:30;;;;;;;10.88;9.02;;;;;;;20.51;81.00;99555.44;1087858;54;20041;-76
2021/09/15 05:52:34;;;;;;;10.23;8.52;;;;;;;20.56;81.19;99546.63;1087776;54;20038;-78
2021/09/15 05:53:35;;;;;;;11.25;9.00;;;;;;;20.45;81.53;99566.34;1087714;54;20034;-77
2021/09/15 05:54:39;;;;;;;10.30;8.35;;;;;;;20.47;81.80;99569.69;1087801;54;20034;-77
2021/09/15 05:55:41;;;;;;;10.00;8.45;;;;;;;20.45;81.83;99572.59;1090571;46;20038;-77
2021/09/15 05:56:45;;;;;;;9.63;8.23;;;;;;;20.53;81.65;99572.34;1087770;54;20027;-77
2021/09/15 05:57:47;;;;;;;9.38;7.97;;;;;;;20.53;81.68;99580.50;1087690;54;20042;-78
2021/09/15 05:58:51;;;;;;;11.35;7.57;;;;;;;20.51;81.51;99565.44;1087867;54;20722;-77
2021/09/15 05:59:52;;;;;;;9.80;7.47;;;;;;;20.56;81.33;99569.16;1087782;54;20053;-77
2021/09/15 06:00:56;;;;;;;11.95;7.55;;;;;;;20.54;81.27;99574.00;1089181;46;20086;-77
2021/09/15 06:01:58;;;;;;;9.15;6.50;;;;;;;20.53;81.54;99568.78;1087599;54;20034;-77
2021/09/15 06:03:02;;;;;;;7.97;6.60;;;;;;;20.55;81.41;99564.78;1087684;54;20031;-77
2021/09/15 06:04:04;;;;;;;8.07;6.60;;;;;;;20.58;81.57;99552.66;1087720;54;20651;-78
2021/09/15 06:05:09;;;;;;;8.15;6.35;;;;;;;20.58;81.30;99549.97;1087770;54;20391;-76
2021/09/15 06:06:13;;;;;;;9.70;6.65;;;;;;;20.60;81.26;99553.25;1087308;54;20041;-77
2021/09/15 06:07:17;;;;;;;8.18;6.35;;;;;;;20.64;81.19;99554.47;1087528;54;20030;-77